sensor_id;sensor_type;location;lat;lon;timestamp;pressure;altitude;pressure_sealevel;temperature;humidity
77077;BME280;66003;52.286;104.306;2024-02-21T00:01:54;99396.06;;;-29.48;33.26
77077;BME280;66003;52.286;104.306;2024-02-21T00:04:20;99391.84;;;-29.37;33.15
77077;BME280;66003;52.286;104.306;2024-02-21T00:06:47;99393.53;;;-29.31;32.85
77077;BME280;66003;52.286;104.306;2024-02-21T00:09:13;99409.53;;;-29.11;32.97
77077;BME280;66003;52.286;104.306;2024-02-21T00:11:39;99403.56;;;-28.96;32.69
77077;BME280;66003;52.286;104.306;2024-02-21T00:14:05;99396.72;;;-28.80;32.75
77077;BME280;66003;52.286;104.306;2024-02-21T00:16:32;99401.78;;;-28.73;32.54
77077;BME280;66003;52.286;104.306;2024-02-21T00:18:58;99395.88;;;-28.73;32.63
77077;BME280;66003;52.286;104.306;2024-02-21T00:21:25;99399.25;;;-28.73;33.30
77077;BME280;66003;52.286;104.306;2024-02-21T00:23:51;99401.75;;;-28.62;33.03
77077;BME280;66003;52.286;104.306;2024-02-21T00:26:17;99391.25;;;-28.06;33.24
77077;BME280;66003;52.286;104.306;2024-02-21T00:28:43;99400.53;;;-27.05;32.75
77077;BME280;66003;52.286;104.306;2024-02-21T00:31:10;99390.41;;;-26.36;32.36
77077;BME280;66003;52.286;104.306;2024-02-21T00:33:36;99393.06;;;-25.87;32.37
77077;BME280;66003;52.286;104.306;2024-02-21T00:36:03;99389.47;;;-25.22;32.01
77077;BME280;66003;52.286;104.306;2024-02-21T00:38:29;99386.16;;;-24.39;31.45
77077;BME280;66003;52.286;104.306;2024-02-21T00:40:55;99392.28;;;-23.35;31.04
77077;BME280;66003;52.286;104.306;2024-02-21T00:43:22;99389.34;;;-22.26;29.30
77077;BME280;66003;52.286;104.306;2024-02-21T00:45:50;99381.91;;;-21.78;29.22
77077;BME280;66003;52.286;104.306;2024-02-21T00:48:16;99391.66;;;-21.10;29.07
77077;BME280;66003;52.286;104.306;2024-02-21T00:50:42;99376.16;;;-20.57;28.66
77077;BME280;66003;52.286;104.306;2024-02-21T00:53:09;99377.88;;;-20.58;28.19
77077;BME280;66003;52.286;104.306;2024-02-21T00:55:35;99389.38;;;-20.21;28.36
77077;BME280;66003;52.286;104.306;2024-02-21T00:58:02;99380.75;;;-19.53;28.23
77077;BME280;66003;52.286;104.306;2024-02-21T01:00:28;99379.53;;;-18.43;27.90
77077;BME280;66003;52.286;104.306;2024-02-21T01:02:54;99378.44;;;-16.92;27.26
77077;BME280;66003;52.286;104.306;2024-02-21T01:05:20;99375.53;;;-16.03;26.52
77077;BME280;66003;52.286;104.306;2024-02-21T01:07:46;99363.34;;;-15.24;26.17
77077;BME280;66003;52.286;104.306;2024-02-21T01:10:12;99371.41;;;-14.40;25.63
77077;BME280;66003;52.286;104.306;2024-02-21T01:12:39;99374.28;;;-13.88;25.27
77077;BME280;66003;52.286;104.306;2024-02-21T01:15:05;99369.75;;;-13.16;24.20
77077;BME280;66003;52.286;104.306;2024-02-21T01:17:31;99367.63;;;-12.72;23.71
77077;BME280;66003;52.286;104.306;2024-02-21T01:19:57;99376.91;;;-12.30;23.46
77077;BME280;66003;52.286;104.306;2024-02-21T01:22:23;99380.53;;;-11.94;21.66
77077;BME280;66003;52.286;104.306;2024-02-21T01:24:50;99382.09;;;-11.43;19.53
77077;BME280;66003;52.286;104.306;2024-02-21T01:27:16;99363.34;;;-10.54;22.09
77077;BME280;66003;52.286;104.306;2024-02-21T01:29:42;99365.31;;;-9.89;22.37
77077;BME280;66003;52.286;104.306;2024-02-21T01:32:08;99369.69;;;-9.56;22.88
77077;BME280;66003;52.286;104.306;2024-02-21T01:34:34;99372.50;;;-9.26;23.91
77077;BME280;66003;52.286;104.306;2024-02-21T01:37:00;99356.66;;;-8.92;21.57
77077;BME280;66003;52.286;104.306;2024-02-21T01:39:30;99352.06;;;-8.58;22.86
77077;BME280;66003;52.286;104.306;2024-02-21T01:41:56;99352.38;;;-8.52;21.90
77077;BME280;66003;52.286;104.306;2024-02-21T01:44:22;99353.78;;;-8.48;21.34
77077;BME280;66003;52.286;104.306;2024-02-21T01:46:48;99354.56;;;-8.36;21.16
77077;BME280;66003;52.286;104.306;2024-02-21T01:49:15;99353.56;;;-8.65;19.65
77077;BME280;66003;52.286;104.306;2024-02-21T01:51:41;99357.69;;;-8.21;18.10
77077;BME280;66003;52.286;104.306;2024-02-21T01:54:08;99364.72;;;-7.51;19.24
77077;BME280;66003;52.286;104.306;2024-02-21T01:56:34;99347.31;;;-7.43;16.94
77077;BME280;66003;52.286;104.306;2024-02-21T01:59:01;99345.31;;;-6.91;18.25
77077;BME280;66003;52.286;104.306;2024-02-21T02:01:29;99340.44;;;-6.86;18.40
77077;BME280;66003;52.286;104.306;2024-02-21T02:03:55;99353.53;;;-7.53;18.71
77077;BME280;66003;52.286;104.306;2024-02-21T02:06:22;99339.56;;;-7.94;16.99
77077;BME280;66003;52.286;104.306;2024-02-21T02:08:48;99325.91;;;-7.88;15.16
77077;BME280;66003;52.286;104.306;2024-02-21T02:11:14;99328.28;;;-7.25;19.04
77077;BME280;66003;52.286;104.306;2024-02-21T02:13:41;99329.69;;;-8.11;19.19
77077;BME280;66003;52.286;104.306;2024-02-21T02:16:08;99329.53;;;-8.19;19.72
77077;BME280;66003;52.286;104.306;2024-02-21T02:18:34;99323.81;;;-7.44;20.62
77077;BME280;66003;52.286;104.306;2024-02-21T02:21:01;99319.56;;;-7.26;19.56
77077;BME280;66003;52.286;104.306;2024-02-21T02:23:31;99316.25;;;-6.99;19.11
77077;BME280;66003;52.286;104.306;2024-02-21T02:25:58;99301.56;;;-6.73;19.25
77077;BME280;66003;52.286;104.306;2024-02-21T02:31:08;99305.16;;;-7.41;18.62
77077;BME280;66003;52.286;104.306;2024-02-21T02:33:35;99314.56;;;-7.48;19.35
77077;BME280;66003;52.286;104.306;2024-02-21T02:36:19;99309.25;;;-7.67;18.96
77077;BME280;66003;52.286;104.306;2024-02-21T02:50:39;99284.00;;;-6.82;17.75
77077;BME280;66003;52.286;104.306;2024-02-21T02:53:05;99269.13;;;-6.64;18.56
77077;BME280;66003;52.286;104.306;2024-02-21T02:55:31;99269.75;;;-6.33;18.12
77077;BME280;66003;52.286;104.306;2024-02-21T02:57:57;99274.56;;;-6.75;18.10
77077;BME280;66003;52.286;104.306;2024-02-21T03:00:24;99274.91;;;-7.26;18.17
77077;BME280;66003;52.286;104.306;2024-02-21T03:02:51;99269.69;;;-7.85;17.72
77077;BME280;66003;52.286;104.306;2024-02-21T03:05:18;99262.75;;;-8.66;17.30
77077;BME280;66003;52.286;104.306;2024-02-21T03:07:45;99264.56;;;-10.95;17.09
77077;BME280;66003;52.286;104.306;2024-02-21T03:10:12;99280.75;;;-12.71;18.52
77077;BME280;66003;52.286;104.306;2024-02-21T03:12:39;99274.16;;;-13.67;20.69
77077;BME280;66003;52.286;104.306;2024-02-21T03:15:05;99267.50;;;-13.31;20.95
77077;BME280;66003;52.286;104.306;2024-02-21T03:17:33;99261.53;;;-12.19;20.64
77077;BME280;66003;52.286;104.306;2024-02-21T03:20:03;99248.19;;;-10.97;18.60
77077;BME280;66003;52.286;104.306;2024-02-21T03:22:36;99243.66;;;-9.95;18.60
77077;BME280;66003;52.286;104.306;2024-02-21T03:25:03;99232.28;;;-9.62;17.92
77077;BME280;66003;52.286;104.306;2024-02-21T03:27:39;99238.38;;;-10.60;17.72
77077;BME280;66003;52.286;104.306;2024-02-21T03:30:06;99239.97;;;-12.34;18.48
77077;BME280;66003;52.286;104.306;2024-02-21T03:32:34;99232.91;;;-13.85;19.91
77077;BME280;66003;52.286;104.306;2024-02-21T03:35:00;99233.97;;;-15.00;20.32
77077;BME280;66003;52.286;104.306;2024-02-21T03:37:31;99237.09;;;-15.97;21.36
77077;BME280;66003;52.286;104.306;2024-02-21T03:39:57;99236.66;;;-16.68;22.41
77077;BME280;66003;52.286;104.306;2024-02-21T03:42:23;99232.28;;;-17.16;23.09
77077;BME280;66003;52.286;104.306;2024-02-21T03:44:49;99232.59;;;-17.38;23.65
77077;BME280;66003;52.286;104.306;2024-02-21T03:47:15;99228.75;;;-17.48;23.69
77077;BME280;66003;52.286;104.306;2024-02-21T03:49:41;99228.75;;;-17.48;23.86
77077;BME280;66003;52.286;104.306;2024-02-21T03:52:08;99233.28;;;-17.52;24.55
77077;BME280;66003;52.286;104.306;2024-02-21T03:54:35;99231.34;;;-17.48;24.26
77077;BME280;66003;52.286;104.306;2024-02-21T03:57:01;99220.88;;;-17.45;24.55
77077;BME280;66003;52.286;104.306;2024-02-21T03:59:28;99212.59;;;-17.52;24.40
77077;BME280;66003;52.286;104.306;2024-02-21T04:01:54;99211.97;;;-17.40;24.98
77077;BME280;66003;52.286;104.306;2024-02-21T04:04:21;99223.06;;;-17.38;24.87
77077;BME280;66003;52.286;104.306;2024-02-21T04:06:48;99204.28;;;-17.08;25.00
77077;BME280;66003;52.286;104.306;2024-02-21T04:09:14;99213.22;;;-16.98;25.41
77077;BME280;66003;52.286;104.306;2024-02-21T04:11:41;99197.66;;;-16.97;25.01
77077;BME280;66003;52.286;104.306;2024-02-21T04:14:07;99198.72;;;-17.01;25.31
77077;BME280;66003;52.286;104.306;2024-02-21T04:16:34;99186.03;;;-16.90;24.64
77077;BME280;66003;52.286;104.306;2024-02-21T04:19:00;99201.41;;;-16.87;25.02
77077;BME280;66003;52.286;104.306;2024-02-21T04:21:28;99189.72;;;-16.94;25.07
77077;BME280;66003;52.286;104.306;2024-02-21T04:23:54;99191.81;;;-16.85;25.28
77077;BME280;66003;52.286;104.306;2024-02-21T04:26:21;99187.66;;;-16.71;25.14
77077;BME280;66003;52.286;104.306;2024-02-21T04:28:47;99172.97;;;-16.71;24.79
77077;BME280;66003;52.286;104.306;2024-02-21T04:31:13;99162.38;;;-16.66;25.27
77077;BME280;66003;52.286;104.306;2024-02-21T04:33:39;99173.16;;;-16.58;25.40
77077;BME280;66003;52.286;104.306;2024-02-21T04:36:05;99170.06;;;-16.33;24.90
77077;BME280;66003;52.286;104.306;2024-02-21T04:38:31;99160.94;;;-16.25;25.04
77077;BME280;66003;52.286;104.306;2024-02-21T04:40:58;99153.72;;;-16.04;25.19
77077;BME280;66003;52.286;104.306;2024-02-21T04:43:25;99156.09;;;-15.85;25.58
77077;BME280;66003;52.286;104.306;2024-02-21T04:45:51;99149.69;;;-15.50;24.97
77077;BME280;66003;52.286;104.306;2024-02-21T04:48:19;99142.38;;;-15.29;25.08
77077;BME280;66003;52.286;104.306;2024-02-21T04:50:47;99140.63;;;-15.43;25.50
77077;BME280;66003;52.286;104.306;2024-02-21T04:53:13;99142.47;;;-15.45;25.59
77077;BME280;66003;52.286;104.306;2024-02-21T04:55:40;99123.88;;;-15.81;25.57
77077;BME280;66003;52.286;104.306;2024-02-21T04:58:07;99120.66;;;-15.70;25.03
77077;BME280;66003;52.286;104.306;2024-02-21T05:00:34;99111.44;;;-15.60;24.86
77077;BME280;66003;52.286;104.306;2024-02-21T05:03:00;99113.28;;;-15.48;25.19
77077;BME280;66003;52.286;104.306;2024-02-21T05:05:27;99107.38;;;-15.36;24.10
77077;BME280;66003;52.286;104.306;2024-02-21T05:07:53;99104.75;;;-15.22;25.07
77077;BME280;66003;52.286;104.306;2024-02-21T05:10:19;99101.25;;;-15.35;25.40
77077;BME280;66003;52.286;104.306;2024-02-21T05:12:46;99092.25;;;-15.29;25.02
77077;BME280;66003;52.286;104.306;2024-02-21T05:15:12;99093.00;;;-15.27;24.76
77077;BME280;66003;52.286;104.306;2024-02-21T05:17:39;99070.34;;;-14.97;24.77
77077;BME280;66003;52.286;104.306;2024-02-21T05:20:05;99077.94;;;-14.80;24.59
77077;BME280;66003;52.286;104.306;2024-02-21T05:22:32;99077.25;;;-14.69;24.57
77077;BME280;66003;52.286;104.306;2024-02-21T05:24:58;99064.94;;;-14.80;24.39
77077;BME280;66003;52.286;104.306;2024-02-21T05:27:24;99074.50;;;-14.80;24.63
77077;BME280;66003;52.286;104.306;2024-02-21T05:29:50;99064.00;;;-14.52;25.56
77077;BME280;66003;52.286;104.306;2024-02-21T05:32:16;99059.25;;;-14.72;25.41
77077;BME280;66003;52.286;104.306;2024-02-21T05:34:43;99063.69;;;-14.60;24.20
77077;BME280;66003;52.286;104.306;2024-02-21T05:37:09;99050.44;;;-14.43;25.11
77077;BME280;66003;52.286;104.306;2024-02-21T05:39:35;99054.53;;;-14.26;24.11
77077;BME280;66003;52.286;104.306;2024-02-21T05:42:01;99048.19;;;-14.35;23.97
77077;BME280;66003;52.286;104.306;2024-02-21T05:44:27;99033.84;;;-14.27;24.68
77077;BME280;66003;52.286;104.306;2024-02-21T05:46:53;99036.56;;;-14.16;25.15
77077;BME280;66003;52.286;104.306;2024-02-21T05:49:19;99037.31;;;-14.02;25.05
77077;BME280;66003;52.286;104.306;2024-02-21T05:51:46;99020.47;;;-13.83;24.92
77077;BME280;66003;52.286;104.306;2024-02-21T05:54:13;99019.06;;;-13.75;24.61
77077;BME280;66003;52.286;104.306;2024-02-21T05:56:39;99012.09;;;-13.87;25.43
77077;BME280;66003;52.286;104.306;2024-02-21T05:59:05;99006.16;;;-13.76;24.72
77077;BME280;66003;52.286;104.306;2024-02-21T06:01:31;99013.75;;;-13.73;24.58
77077;BME280;66003;52.286;104.306;2024-02-21T06:03:57;99004.69;;;-13.80;25.43
77077;BME280;66003;52.286;104.306;2024-02-21T06:06:23;99000.50;;;-13.58;24.52
77077;BME280;66003;52.286;104.306;2024-02-21T06:08:50;98998.09;;;-13.48;24.04
77077;BME280;66003;52.286;104.306;2024-02-21T06:11:16;98991.66;;;-13.42;24.65
77077;BME280;66003;52.286;104.306;2024-02-21T06:13:43;98989.00;;;-13.17;24.96
77077;BME280;66003;52.286;104.306;2024-02-21T06:16:09;98981.56;;;-13.47;25.22
77077;BME280;66003;52.286;104.306;2024-02-21T06:18:36;98985.50;;;-13.41;25.10
77077;BME280;66003;52.286;104.306;2024-02-21T06:21:04;98972.09;;;-13.48;25.02
77077;BME280;66003;52.286;104.306;2024-02-21T06:23:30;98966.69;;;-13.45;24.81
77077;BME280;66003;52.286;104.306;2024-02-21T06:25:56;98950.06;;;-13.55;24.93
77077;BME280;66003;52.286;104.306;2024-02-21T06:28:22;98962.25;;;-13.19;24.80
77077;BME280;66003;52.286;104.306;2024-02-21T06:30:48;98969.03;;;-12.93;24.64
77077;BME280;66003;52.286;104.306;2024-02-21T06:33:14;98961.63;;;-12.99;24.14
77077;BME280;66003;52.286;104.306;2024-02-21T06:35:40;98958.25;;;-12.88;24.94
77077;BME280;66003;52.286;104.306;2024-02-21T06:38:08;98957.44;;;-12.89;24.43
77077;BME280;66003;52.286;104.306;2024-02-21T06:40:35;98954.69;;;-12.87;23.66
77077;BME280;66003;52.286;104.306;2024-02-21T06:43:05;98951.22;;;-12.64;24.19
77077;BME280;66003;52.286;104.306;2024-02-21T06:45:31;98940.06;;;-12.77;24.45
77077;BME280;66003;52.286;104.306;2024-02-21T06:47:57;98934.13;;;-12.55;23.96
77077;BME280;66003;52.286;104.306;2024-02-21T06:50:24;98938.22;;;-12.64;23.38
77077;BME280;66003;52.286;104.306;2024-02-21T06:52:50;98926.16;;;-12.54;24.02
77077;BME280;66003;52.286;104.306;2024-02-21T06:55:16;98924.38;;;-12.53;23.29
77077;BME280;66003;52.286;104.306;2024-02-21T06:57:44;98932.34;;;-12.55;23.54
77077;BME280;66003;52.286;104.306;2024-02-21T07:00:11;98923.94;;;-12.47;23.67
77077;BME280;66003;52.286;104.306;2024-02-21T07:02:37;98916.50;;;-12.40;23.46
77077;BME280;66003;52.286;104.306;2024-02-21T07:05:04;98912.72;;;-12.36;23.27
77077;BME280;66003;52.286;104.306;2024-02-21T07:07:31;98904.69;;;-12.33;23.93
77077;BME280;66003;52.286;104.306;2024-02-21T07:09:57;98903.72;;;-12.43;24.14
77077;BME280;66003;52.286;104.306;2024-02-21T07:12:23;98898.38;;;-12.42;23.19
77077;BME280;66003;52.286;104.306;2024-02-21T07:14:49;98909.88;;;-12.44;23.12
77077;BME280;66003;52.286;104.306;2024-02-21T07:17:15;98899.44;;;-12.44;22.95
77077;BME280;66003;52.286;104.306;2024-02-21T07:19:41;98899.56;;;-12.46;24.16
77077;BME280;66003;52.286;104.306;2024-02-21T07:22:08;98895.75;;;-12.42;24.55
77077;BME280;66003;52.286;104.306;2024-02-21T07:24:34;98890.53;;;-12.53;24.43
77077;BME280;66003;52.286;104.306;2024-02-21T07:27:01;98887.59;;;-12.49;23.41
77077;BME280;66003;52.286;104.306;2024-02-21T07:29:31;98883.53;;;-12.53;23.31
77077;BME280;66003;52.286;104.306;2024-02-21T07:31:57;98867.84;;;-12.29;23.32
77077;BME280;66003;52.286;104.306;2024-02-21T07:34:23;98858.25;;;-12.17;24.50
77077;BME280;66003;52.286;104.306;2024-02-21T07:36:49;98873.44;;;-12.11;24.05
77077;BME280;66003;52.286;104.306;2024-02-21T07:39:16;98870.00;;;-12.12;23.78
77077;BME280;66003;52.286;104.306;2024-02-21T07:41:42;98861.22;;;-12.22;23.83
77077;BME280;66003;52.286;104.306;2024-02-21T07:44:10;98861.34;;;-12.12;24.48
77077;BME280;66003;52.286;104.306;2024-02-21T07:46:37;98864.28;;;-11.94;24.55
77077;BME280;66003;52.286;104.306;2024-02-21T07:49:03;98859.06;;;-11.83;24.51
77077;BME280;66003;52.286;104.306;2024-02-21T07:51:29;98859.56;;;-12.12;24.66
77077;BME280;66003;52.286;104.306;2024-02-21T07:53:55;98862.78;;;-12.08;24.86
77077;BME280;66003;52.286;104.306;2024-02-21T07:56:21;98862.06;;;-12.10;24.33
77077;BME280;66003;52.286;104.306;2024-02-21T07:58:47;98857.41;;;-12.18;24.55
77077;BME280;66003;52.286;104.306;2024-02-21T08:01:20;98856.47;;;-12.05;24.54
77077;BME280;66003;52.286;104.306;2024-02-21T08:03:47;98860.84;;;-12.06;24.09
77077;BME280;66003;52.286;104.306;2024-02-21T08:06:13;98858.13;;;-12.16;23.96
77077;BME280;66003;52.286;104.306;2024-02-21T08:08:40;98857.31;;;-12.05;24.54
77077;BME280;66003;52.286;104.306;2024-02-21T08:11:06;98849.97;;;-12.00;23.61
77077;BME280;66003;52.286;104.306;2024-02-21T08:13:33;98857.91;;;-12.13;24.06
77077;BME280;66003;52.286;104.306;2024-02-21T08:15:59;98859.44;;;-12.21;23.12
77077;BME280;66003;52.286;104.306;2024-02-21T08:18:25;98854.13;;;-12.20;24.25
77077;BME280;66003;52.286;104.306;2024-02-21T08:20:51;98850.31;;;-12.16;24.11
77077;BME280;66003;52.286;104.306;2024-02-21T08:23:19;98842.25;;;-12.24;23.45
77077;BME280;66003;52.286;104.306;2024-02-21T08:25:45;98854.47;;;-12.13;23.79
77077;BME280;66003;52.286;104.306;2024-02-21T08:28:11;98847.94;;;-11.85;23.96
77077;BME280;66003;52.286;104.306;2024-02-21T08:30:39;98843.78;;;-11.88;24.52
77077;BME280;66003;52.286;104.306;2024-02-21T08:33:05;98824.13;;;-11.92;24.63
77077;BME280;66003;52.286;104.306;2024-02-21T08:35:31;98840.38;;;-11.99;23.67
77077;BME280;66003;52.286;104.306;2024-02-21T08:37:57;98838.47;;;-11.97;23.60
77077;BME280;66003;52.286;104.306;2024-02-21T08:40:23;98835.38;;;-12.02;24.77
77077;BME280;66003;52.286;104.306;2024-02-21T08:42:49;98830.06;;;-12.01;23.65
77077;BME280;66003;52.286;104.306;2024-02-21T08:45:16;98826.97;;;-12.06;24.12
77077;BME280;66003;52.286;104.306;2024-02-21T08:47:42;98819.03;;;-12.04;24.47
77077;BME280;66003;52.286;104.306;2024-02-21T08:50:09;98816.19;;;-11.90;24.76
77077;BME280;66003;52.286;104.306;2024-02-21T08:52:38;98819.94;;;-11.83;24.11
77077;BME280;66003;52.286;104.306;2024-02-21T08:55:04;98818.31;;;-12.06;23.40
77077;BME280;66003;52.286;104.306;2024-02-21T08:57:31;98828.03;;;-11.97;23.84
77077;BME280;66003;52.286;104.306;2024-02-21T09:00:07;98813.81;;;-12.04;24.35
77077;BME280;66003;52.286;104.306;2024-02-21T09:02:41;98822.25;;;-12.12;23.69
77077;BME280;66003;52.286;104.306;2024-02-21T09:05:09;98818.31;;;-12.06;24.05
77077;BME280;66003;52.286;104.306;2024-02-21T09:07:36;98821.31;;;-12.22;23.36
77077;BME280;66003;52.286;104.306;2024-02-21T09:10:04;98816.31;;;-12.36;24.08
77077;BME280;66003;52.286;104.306;2024-02-21T09:12:30;98815.38;;;-12.35;24.20
77077;BME280;66003;52.286;104.306;2024-02-21T09:14:56;98820.94;;;-12.29;24.42
77077;BME280;66003;52.286;104.306;2024-02-21T09:17:22;98810.06;;;-12.34;23.60
77077;BME280;66003;52.286;104.306;2024-02-21T09:19:50;98807.44;;;-12.23;24.09
77077;BME280;66003;52.286;104.306;2024-02-21T09:22:17;98805.91;;;-12.36;23.89
77077;BME280;66003;52.286;104.306;2024-02-21T09:24:43;98813.81;;;-12.49;24.38
77077;BME280;66003;52.286;104.306;2024-02-21T09:27:10;98812.28;;;-12.52;23.65
77077;BME280;66003;52.286;104.306;2024-02-21T09:29:37;98806.13;;;-12.62;23.93
77077;BME280;66003;52.286;104.306;2024-02-21T09:32:03;98808.69;;;-12.73;24.27
77077;BME280;66003;52.286;104.306;2024-02-21T09:34:29;98802.31;;;-12.91;25.15
77077;BME280;66003;52.286;104.306;2024-02-21T09:36:56;98805.88;;;-12.92;23.89
77077;BME280;66003;52.286;104.306;2024-02-21T09:39:22;98805.44;;;-13.10;23.97
77077;BME280;66003;52.286;104.306;2024-02-21T09:42:01;98803.31;;;-13.16;24.80
77077;BME280;66003;52.286;104.306;2024-02-21T09:44:36;98790.41;;;-13.17;24.74
77077;BME280;66003;52.286;104.306;2024-02-21T09:47:06;98798.94;;;-13.15;24.97
77077;BME280;66003;52.286;104.306;2024-02-21T09:49:36;98798.94;;;-13.15;25.21
77077;BME280;66003;52.286;104.306;2024-02-21T09:52:06;98801.22;;;-13.35;24.94
77077;BME280;66003;52.286;104.306;2024-02-21T09:54:36;98813.34;;;-13.46;24.91
77077;BME280;66003;52.286;104.306;2024-02-21T09:57:03;98809.88;;;-13.58;25.36
77077;BME280;66003;52.286;104.306;2024-02-21T09:59:33;98820.53;;;-13.98;24.46
77077;BME280;66003;52.286;104.306;2024-02-21T10:02:00;98815.41;;;-13.86;24.89
77077;BME280;66003;52.286;104.306;2024-02-21T10:04:27;98822.88;;;-13.95;24.76
77077;BME280;66003;52.286;104.306;2024-02-21T10:06:54;98824.88;;;-13.98;24.98
77077;BME280;66003;52.286;104.306;2024-02-21T10:09:23;98831.53;;;-14.07;25.37
77077;BME280;66003;52.286;104.306;2024-02-21T10:11:50;98824.50;;;-14.30;24.57
77077;BME280;66003;52.286;104.306;2024-02-21T10:14:17;98828.69;;;-14.53;24.64
77077;BME280;66003;52.286;104.306;2024-02-21T10:16:48;98840.13;;;-14.68;24.83
77077;BME280;66003;52.286;104.306;2024-02-21T10:19:21;98835.03;;;-14.82;25.76
77077;BME280;66003;52.286;104.306;2024-02-21T10:22:03;98828.44;;;-15.01;25.38
77077;BME280;66003;52.286;104.306;2024-02-21T10:24:31;98827.72;;;-15.15;24.97
77077;BME280;66003;52.286;104.306;2024-02-21T10:27:08;98824.47;;;-15.31;24.99
77077;BME280;66003;52.286;104.306;2024-02-21T10:29:35;98832.56;;;-15.36;25.50
77077;BME280;66003;52.286;104.306;2024-02-21T10:32:09;98835.56;;;-15.42;25.44
77077;BME280;66003;52.286;104.306;2024-02-21T10:34:38;98822.41;;;-15.66;25.28
77077;BME280;66003;52.286;104.306;2024-02-21T10:37:06;98835.19;;;-15.63;25.48
77077;BME280;66003;52.286;104.306;2024-02-21T10:39:33;98836.19;;;-15.65;25.87
77077;BME280;66003;52.286;104.306;2024-02-21T10:42:01;98834.28;;;-15.76;25.50
77077;BME280;66003;52.286;104.306;2024-02-21T10:44:33;98832.44;;;-15.74;25.61
77077;BME280;66003;52.286;104.306;2024-02-21T10:46:59;98838.91;;;-15.81;25.61
77077;BME280;66003;52.286;104.306;2024-02-21T10:49:30;98842.34;;;-15.81;25.69
77077;BME280;66003;52.286;104.306;2024-02-21T10:55:26;98847.19;;;-16.03;26.00
77077;BME280;66003;52.286;104.306;2024-02-21T10:57:45;98850.72;;;-16.04;26.42
77077;BME280;66003;52.286;104.306;2024-02-21T11:00:15;98845.38;;;-16.15;26.41
77077;BME280;66003;52.286;104.306;2024-02-21T11:02:45;98854.22;;;-16.19;26.54
77077;BME280;66003;52.286;104.306;2024-02-21T11:05:12;98840.50;;;-16.34;26.18
77077;BME280;66003;52.286;104.306;2024-02-21T11:07:40;98846.19;;;-16.29;26.22
77077;BME280;66003;52.286;104.306;2024-02-21T11:10:23;98842.88;;;-16.31;26.17
77077;BME280;66003;52.286;104.306;2024-02-21T11:13:10;98852.13;;;-16.41;26.37
77077;BME280;66003;52.286;104.306;2024-02-21T11:15:36;98853.88;;;-16.41;26.55
77077;BME280;66003;52.286;104.306;2024-02-21T11:18:03;98858.41;;;-16.59;26.75
77077;BME280;66003;52.286;104.306;2024-02-21T11:20:33;98860.25;;;-16.61;26.38
77077;BME280;66003;52.286;104.306;2024-02-21T11:23:00;98870.69;;;-16.63;27.00
77077;BME280;66003;52.286;104.306;2024-02-21T11:25:30;98865.88;;;-16.69;26.41
77077;BME280;66003;52.286;104.306;2024-02-21T11:28:03;98863.09;;;-16.80;26.45
77077;BME280;66003;52.286;104.306;2024-02-21T11:30:31;98862.44;;;-16.83;26.85
77077;BME280;66003;52.286;104.306;2024-02-21T11:33:05;98869.06;;;-16.94;26.98
77077;BME280;66003;52.286;104.306;2024-02-21T11:35:35;98870.25;;;-16.99;26.74
77077;BME280;66003;52.286;104.306;2024-02-21T11:38:13;98869.88;;;-17.07;26.83
77077;BME280;66003;52.286;104.306;2024-02-21T11:40:46;98867.88;;;-17.32;26.48
77077;BME280;66003;52.286;104.306;2024-02-21T11:43:13;98876.38;;;-17.30;26.12
77077;BME280;66003;52.286;104.306;2024-02-21T11:45:39;98879.19;;;-17.19;26.22
77077;BME280;66003;52.286;104.306;2024-02-21T11:48:08;98877.75;;;-17.25;26.27
77077;BME280;66003;52.286;104.306;2024-02-21T11:50:35;98885.22;;;-17.34;26.09
77077;BME280;66003;52.286;104.306;2024-02-21T11:53:02;98881.03;;;-17.37;26.53
77077;BME280;66003;52.286;104.306;2024-02-21T11:55:29;98882.53;;;-17.33;26.38
77077;BME280;66003;52.286;104.306;2024-02-21T11:57:55;98882.78;;;-17.37;26.53
77077;BME280;66003;52.286;104.306;2024-02-21T12:00:21;98878.13;;;-17.46;26.46
77077;BME280;66003;52.286;104.306;2024-02-21T12:02:50;98876.47;;;-17.47;26.08
77077;BME280;66003;52.286;104.306;2024-02-21T12:05:16;98875.16;;;-17.54;26.52
77077;BME280;66003;52.286;104.306;2024-02-21T12:07:45;98875.09;;;-17.69;26.43
77077;BME280;66003;52.286;104.306;2024-02-21T12:10:12;98876.81;;;-17.85;26.77
77077;BME280;66003;52.286;104.306;2024-02-21T12:12:39;98877.41;;;-17.80;26.64
77077;BME280;66003;52.286;104.306;2024-02-21T12:15:07;98877.66;;;-18.00;26.61
77077;BME280;66003;52.286;104.306;2024-02-21T12:17:36;98883.91;;;-18.04;26.65
77077;BME280;66003;52.286;104.306;2024-02-21T12:20:04;98894.59;;;-18.27;27.06
77077;BME280;66003;52.286;104.306;2024-02-21T12:22:38;98873.22;;;-18.29;27.00
77077;BME280;66003;52.286;104.306;2024-02-21T12:25:16;98887.09;;;-18.48;26.88
77077;BME280;66003;52.286;104.306;2024-02-21T12:27:46;98879.97;;;-18.60;27.18
77077;BME280;66003;52.286;104.306;2024-02-21T12:30:12;98881.56;;;-18.57;27.13
77077;BME280;66003;52.286;104.306;2024-02-21T12:32:39;98882.25;;;-18.71;27.41
77077;BME280;66003;52.286;104.306;2024-02-21T12:35:05;98884.69;;;-18.68;27.48
77077;BME280;66003;52.286;104.306;2024-02-21T12:37:31;98886.06;;;-18.78;27.15
77077;BME280;66003;52.286;104.306;2024-02-21T12:39:59;98878.97;;;-18.90;27.39
77077;BME280;66003;52.286;104.306;2024-02-21T12:42:26;98872.13;;;-18.91;27.42
77077;BME280;66003;52.286;104.306;2024-02-21T12:44:52;98871.78;;;-19.01;27.47
77077;BME280;66003;52.286;104.306;2024-02-21T12:47:19;98884.66;;;-19.01;27.25
77077;BME280;66003;52.286;104.306;2024-02-21T12:49:49;98893.59;;;-18.91;27.54